Wind Star — C6CA9 — position and weather

sailwx.info

Track history (hours):
 
Tides and Currents Weather Stations Pressure Air Temp Water Temp Dewpoint Dewpoint Depression Visibility Wind Speed Wind Dir Waves Ship Positions

Wind Star

Operator: Holland America Line

Last reported at 2019-Jul-14 17:59 UTC. Time now 2019-Jul-16 10:42 UTC.
Position N 37°43' E 025°40'.

Length 134 m; draft 4.1 m.

Type: Ship. MMSI: 309163000.

Date/timePositionNaut miles runAvg speedWind from/ knotsBaromVisibWave heightAir tempDewpointWater temp
2019-Jul-14 17:59N 37°43' E 025°40'4 8.3
2019-Jul-14 17:31N 37°40' E 025°36'4 8.2
2019-Jul-14 17:00N 37°38' E 025°32'4 8.2
2019-Jul-14 16:30N 37°36' E 025°27'4 8.1
2019-Jul-14 16:00N 37°34' E 025°23'4 7.7
2019-Jul-14 15:31N 37°32' E 025°19'3 6.9
2019-Jul-14 15:00N 37°28' E 025°17'2 3.5
2019-Jul-14 14:28N 37°27' E 025°19'0 0.0
2019-Jul-14 13:58N 37°27' E 025°19'0 0.0
2019-Jul-14 13:28N 37°27' E 025°19'0 0.1
2019-Jul-14 12:58N 37°27' E 025°19'0 0.2
2019-Jul-14 12:28N 37°27' E 025°19'0 0.0
2019-Jul-14 11:55N 37°27' E 025°19'0 0.0
2019-Jul-14 11:28N 37°27' E 025°19'0 0.0
2019-Jul-14 10:58N 37°27' E 025°19'0 0.0
2019-Jul-14 10:28N 37°27' E 025°19'0 0.0
2019-Jul-14 09:55N 37°27' E 025°19'0 0.0
2019-Jul-14 09:19N 37°27' E 025°19'0 0.0
2019-Jul-14 08:58N 37°27' E 025°19'0 0.0
2019-Jul-14 08:28N 37°27' E 025°19'0 0.0
2019-Jul-14 07:55N 37°27' E 025°19'0 0.0
2019-Jul-14 07:28N 37°27' E 025°19'0 0.0
2019-Jul-14 06:58N 37°27' E 025°19'0 0.1
2019-Jul-14 06:25N 37°27' E 025°19'0 0.0
2019-Jul-14 05:58N 37°27' E 025°19'0 0.0
2019-Jul-14 05:28N 37°27' E 025°19'0 0.0
2019-Jul-14 05:00N 37°27' E 025°19'0 0.1
2019-Jul-14 04:30N 37°27' E 025°19'0 0.0
2019-Jul-14 04:00N 37°27' E 025°19'2 4.4
2019-Jul-14 03:30N 37°28' E 025°17'3 5.9
2019-Jul-14 03:00N 37°28' E 025°13'3 5.7
2019-Jul-14 02:30N 37°29' E 025°09'3 5.8
2019-Jul-14 02:00N 37°30' E 025°06'3 6.0
2019-Jul-14 01:30N 37°31' E 025°02'3 6.1
2019-Jul-14 00:58N 37°31' E 024°58'3 6.2
2019-Jul-14 00:25N 37°32' E 024°54'2 5.8
2019-Jul-14 00:00N 37°32' E 024°51'3 6.0
2019-Jul-13 23:30N 37°32' E 024°47'2 4.8
2019-Jul-13 23:00N 37°31' E 024°44'41 8.2
2019-Jul-13 17:58N 37°35' E 023°52'510.1
2019-Jul-13 17:30N 37°37' E 023°47'510.2
2019-Jul-13 17:00N 37°40' E 023°42'510.7
2019-Jul-13 16:30N 37°45' E 023°39'510.4
2019-Jul-13 16:00N 37°50' E 023°37'510.2
2019-Jul-13 15:30N 37°55' E 023°37'2 3.4
2019-Jul-13 15:00N 37°56' E 023°38'0 0.0
2019-Jul-13 14:30N 37°56' E 023°38'0 0.0
2019-Jul-13 14:00N 37°56' E 023°38'0 0.0
2019-Jul-13 13:24N 37°56' E 023°38'0 0.0
2019-Jul-13 13:00N 37°56' E 023°38'0 0.0
2019-Jul-13 12:30N 37°56' E 023°38'0 0.0
2019-Jul-13 12:00N 37°56' E 023°38'0 0.0
2019-Jul-13 11:24N 37°56' E 023°38'0 0.0
2019-Jul-13 11:00N 37°56' E 023°38'0 0.0
2019-Jul-13 10:30N 37°56' E 023°38'0 0.0
2019-Jul-13 10:00N 37°56' E 023°38'0 0.0
2019-Jul-13 09:30N 37°56' E 023°38'0 0.0
2019-Jul-13 09:00N 37°56' E 023°38'0 0.0
2019-Jul-13 08:30N 37°56' E 023°38'0 0.0
2019-Jul-13 07:57N 37°56' E 023°38'0 0.0
2019-Jul-13 07:30N 37°56' E 023°38'0 0.0
2019-Jul-13 07:00N 37°56' E 023°38'0 0.0
2019-Jul-13 06:27N 37°56' E 023°38'0 0.0
2019-Jul-13 06:00N 37°56' E 023°38'0 0.0
2019-Jul-13 05:30N 37°56' E 023°38'0 0.0
2019-Jul-13 05:00N 37°56' E 023°38'0 0.0
2019-Jul-13 04:30N 37°56' E 023°38'0 0.0
2019-Jul-13 04:01N 37°56' E 023°38'1 2.9
2019-Jul-13 03:31N 37°56' E 023°36'1 1.4
2019-Jul-13 03:00N 37°55' E 023°36'2 4.7
2019-Jul-13 02:31N 37°53' E 023°38'3 6.3
2019-Jul-13 02:01N 37°50' E 023°39'4 7.1
2019-Jul-13 01:31N 37°47' E 023°41'4 7.0
2019-Jul-13 01:01N 37°44' E 023°43'4 7.3
2019-Jul-13 00:31N 37°40' E 023°45'4 7.3
2019-Jul-13 00:01N 37°37' E 023°46'4 7.5
2019-Jul-12 23:30N 37°33' E 023°47'37 7.5
2019-Jul-12 18:36N 37°09' E 023°12'4 8.1
2019-Jul-12 18:04N 37°08' E 023°07'1 7.7
2019-Jul-12 17:53N 37°08' E 023°05'4 7.7
2019-Jul-12 17:22N 37°12' E 023°02'3 8.0
2019-Jul-12 17:01N 37°14' E 023°01'17 7.9
2019-Jul-12 14:49N 37°29' E 022°49'0 0.0
2019-Jul-12 03:09N 37°29' E 022°50'14 8.2
2019-Jul-12 01:29N 37°17' E 022°58'9 8.7
2019-Jul-12 00:26N 37°09' E 023°04'4 8.6
2019-Jul-11 23:58N 37°06' E 023°06'  
2019-Jul-07 18:53N 37°46' E 025°47'3 8.4
2019-Jul-07 18:29N 37°45' E 025°43'4 8.3
2019-Jul-07 18:00N 37°42' E 025°39'4 8.2
2019-Jul-07 17:30N 37°40' E 025°35'4 7.8
2019-Jul-07 17:00N 37°38' E 025°31'4 8.1
2019-Jul-07 16:30N 37°35' E 025°27'4 8.3
2019-Jul-07 16:00N 37°33' E 025°23'4 7.7
2019-Jul-07 15:30N 37°31' E 025°18'3 6.4
2019-Jul-07 15:00N 37°28' E 025°17'2 3.3
2019-Jul-07 14:28N 37°27' E 025°19'0 0.0
2019-Jul-07 13:58N 37°27' E 025°19'0 0.0
2019-Jul-07 13:25N 37°27' E 025°19'0 0.0
2019-Jul-07 12:55N 37°27' E 025°19'0 0.0
2019-Jul-07 12:28N 37°27' E 025°19'0 0.0
2019-Jul-07 11:55N 37°27' E 025°19'0 0.0
2019-Jul-07 11:28N 37°27' E 025°19'0 0.0
2019-Jul-07 10:55N 37°27' E 025°19'0 0.0
2019-Jul-07 10:28N 37°27' E 025°19'0 0.0
2019-Jul-07 09:55N 37°27' E 025°19'0 0.0
2019-Jul-07 09:28N 37°27' E 025°19'0 0.1
2019-Jul-07 08:55N 37°27' E 025°19'0 0.0
2019-Jul-07 08:28N 37°27' E 025°19'0 0.0
2019-Jul-07 07:46N 37°27' E 025°19'0 0.0
2019-Jul-07 07:25N 37°27' E 025°19'0 0.0
2019-Jul-07 06:58N 37°27' E 025°19'0 0.1
2019-Jul-07 06:28N 37°27' E 025°19'0 0.1
2019-Jul-07 05:58N 37°27' E 025°19'0 0.0
2019-Jul-07 05:28N 37°27' E 025°19'0 0.0
2019-Jul-07 04:55N 37°27' E 025°19'0 0.0
2019-Jul-07 04:30N 37°27' E 025°19'1 1.7
2019-Jul-07 04:00N 37°27' E 025°18'3 5.2
2019-Jul-07 03:30N 37°28' E 025°15'3 6.5
2019-Jul-07 03:00N 37°29' E 025°11'6 6.3
2019-Jul-07 02:00N 37°30' E 025°03'3 6.6
2019-Jul-07 01:30N 37°31' E 024°59'3 6.3
2019-Jul-07 01:00N 37°31' E 024°55'3 6.5
2019-Jul-07 00:30N 37°32' E 024°51'3 6.8
2019-Jul-07 00:01N 37°31' E 024°47'40 6.8
2019-Jul-06 18:06N 37°35' E 023°57'1 8.6
2019-Jul-06 18:00N 37°35' E 023°56'4 8.4
2019-Jul-06 17:30N 37°37' E 023°51'4 8.1
2019-Jul-06 17:01N 37°38' E 023°46'4 7.6
2019-Jul-06 16:31N 37°41' E 023°42'4 8.0
2019-Jul-06 16:01N 37°44' E 023°40'4 8.3
2019-Jul-06 15:30N 37°48' E 023°38'4 8.1
2019-Jul-06 15:00N 37°52' E 023°36'4 7.4
2019-Jul-06 14:31N 37°56' E 023°36'2 2.9
2019-Jul-06 13:58N 37°56' E 023°38'0 0.0
2019-Jul-06 13:28N 37°56' E 023°38'0 0.0
2019-Jul-06 12:58N 37°56' E 023°38'0 0.0
2019-Jul-06 12:28N 37°56' E 023°38'0 0.0
2019-Jul-06 11:58N 37°56' E 023°38'0 0.0
2019-Jul-06 11:28N 37°56' E 023°38'0 0.0
2019-Jul-06 10:58N 37°56' E 023°38'0 0.0
2019-Jul-06 10:28N 37°56' E 023°38'0 0.0
2019-Jul-06 09:58N 37°56' E 023°38'0 0.0
2019-Jul-06 09:25N 37°56' E 023°38'0 0.0
2019-Jul-06 08:58N 37°56' E 023°38'0 0.0
2019-Jul-06 08:28N 37°56' E 023°38'0 0.0
2019-Jul-06 07:58N 37°56' E 023°38'0 0.0
2019-Jul-06 07:28N 37°56' E 023°38'0 0.0
2019-Jul-06 06:58N 37°56' E 023°38'0 0.0
2019-Jul-06 06:28N 37°56' E 023°38'0 0.0
2019-Jul-06 05:58N 37°56' E 023°38'0 0.0
2019-Jul-06 05:28N 37°56' E 023°38'0 0.0
2019-Jul-06 04:55N 37°56' E 023°38'0 0.0
2019-Jul-06 04:25N 37°56' E 023°38'0 0.0
2019-Jul-06 04:00N 37°56' E 023°38'1 1.6
2019-Jul-06 03:30N 37°56' E 023°37'1 2.8
2019-Jul-06 03:00N 37°55' E 023°36'5 4.8
2019-Jul-06 02:00N 37°51' E 023°39'3 5.8
2019-Jul-06 01:30N 37°48' E 023°41'3 6.0
2019-Jul-06 01:00N 37°45' E 023°42'3 6.7
2019-Jul-06 00:30N 37°42' E 023°44'3 6.4
2019-Jul-06 00:00N 37°39' E 023°46'3 6.7
2019-Jul-05 23:30N 37°36' E 023°46'3 6.7
2019-Jul-05 23:00N 37°33' E 023°46'3 6.7
2019-Jul-05 22:30N 37°29' E 023°46'3 6.8
2019-Jul-05 22:00N 37°26' E 023°45'4 7.2
2019-Jul-05 21:30N 37°23' E 023°43'3 6.9
2019-Jul-05 21:00N 37°20' E 023°41'13 7.7
2019-Jul-05 19:19N 37°09' E 023°31'12 8.6
2019-Jul-05 17:54N 36°60' E 023°22'  
Track history (hours):
 
Tides and Currents Weather Stations Pressure Air Temp Water Temp Dewpoint Dewpoint Depression Visibility Wind Speed Wind Dir Waves Ship Positions

Wind Star

Operator: Holland America Line

Last reported at 2019-Jul-14 17:59 UTC. Time now 2019-Jul-16 10:42 UTC.
Position N 37°43' E 025°40'.

Length 134 m; draft 4.1 m.

Type: Ship. MMSI: 309163000.

Date/timePositionNaut miles runAvg speedWind from/ knotsBaromVisibWave heightAir tempDewpointWater temp
2019-Jul-14 17:59N 37°43' E 025°40'4 8.3
2019-Jul-14 17:31N 37°40' E 025°36'4 8.2
2019-Jul-14 17:00N 37°38' E 025°32'4 8.2
2019-Jul-14 16:30N 37°36' E 025°27'4 8.1
2019-Jul-14 16:00N 37°34' E 025°23'4 7.7
2019-Jul-14 15:31N 37°32' E 025°19'3 6.9
2019-Jul-14 15:00N 37°28' E 025°17'2 3.5
2019-Jul-14 14:28N 37°27' E 025°19'0 0.0
2019-Jul-14 13:58N 37°27' E 025°19'0 0.0
2019-Jul-14 13:28N 37°27' E 025°19'0 0.1
2019-Jul-14 12:58N 37°27' E 025°19'0 0.2
2019-Jul-14 12:28N 37°27' E 025°19'0 0.0
2019-Jul-14 11:55N 37°27' E 025°19'0 0.0
2019-Jul-14 11:28N 37°27' E 025°19'0 0.0
2019-Jul-14 10:58N 37°27' E 025°19'0 0.0
2019-Jul-14 10:28N 37°27' E 025°19'0 0.0
2019-Jul-14 09:55N 37°27' E 025°19'0 0.0
2019-Jul-14 09:19N 37°27' E 025°19'0 0.0
2019-Jul-14 08:58N 37°27' E 025°19'0 0.0
2019-Jul-14 08:28N 37°27' E 025°19'0 0.0
2019-Jul-14 07:55N 37°27' E 025°19'0 0.0
2019-Jul-14 07:28N 37°27' E 025°19'0 0.0
2019-Jul-14 06:58N 37°27' E 025°19'0 0.1
2019-Jul-14 06:25N 37°27' E 025°19'0 0.0
2019-Jul-14 05:58N 37°27' E 025°19'0 0.0
2019-Jul-14 05:28N 37°27' E 025°19'0 0.0
2019-Jul-14 05:00N 37°27' E 025°19'0 0.1
2019-Jul-14 04:30N 37°27' E 025°19'0 0.0
2019-Jul-14 04:00N 37°27' E 025°19'2 4.4
2019-Jul-14 03:30N 37°28' E 025°17'3 5.9
2019-Jul-14 03:00N 37°28' E 025°13'3 5.7
2019-Jul-14 02:30N 37°29' E 025°09'3 5.8
2019-Jul-14 02:00N 37°30' E 025°06'3 6.0
2019-Jul-14 01:30N 37°31' E 025°02'3 6.1
2019-Jul-14 00:58N 37°31' E 024°58'3 6.2
2019-Jul-14 00:25N 37°32' E 024°54'2 5.8
2019-Jul-14 00:00N 37°32' E 024°51'3 6.0
2019-Jul-13 23:30N 37°32' E 024°47'2 4.8
2019-Jul-13 23:00N 37°31' E 024°44'41 8.2
2019-Jul-13 17:58N 37°35' E 023°52'510.1
2019-Jul-13 17:30N 37°37' E 023°47'510.2
2019-Jul-13 17:00N 37°40' E 023°42'510.7
2019-Jul-13 16:30N 37°45' E 023°39'510.4
2019-Jul-13 16:00N 37°50' E 023°37'510.2
2019-Jul-13 15:30N 37°55' E 023°37'2 3.4
2019-Jul-13 15:00N 37°56' E 023°38'0 0.0
2019-Jul-13 14:30N 37°56' E 023°38'0 0.0
2019-Jul-13 14:00N 37°56' E 023°38'0 0.0
2019-Jul-13 13:24N 37°56' E 023°38'0 0.0
2019-Jul-13 13:00N 37°56' E 023°38'0 0.0
2019-Jul-13 12:30N 37°56' E 023°38'0 0.0
2019-Jul-13 12:00N 37°56' E 023°38'0 0.0
2019-Jul-13 11:24N 37°56' E 023°38'0 0.0
2019-Jul-13 11:00N 37°56' E 023°38'0 0.0
2019-Jul-13 10:30N 37°56' E 023°38'0 0.0
2019-Jul-13 10:00N 37°56' E 023°38'0 0.0
2019-Jul-13 09:30N 37°56' E 023°38'0 0.0
2019-Jul-13 09:00N 37°56' E 023°38'0 0.0
2019-Jul-13 08:30N 37°56' E 023°38'0 0.0
2019-Jul-13 07:57N 37°56' E 023°38'0 0.0
2019-Jul-13 07:30N 37°56' E 023°38'0 0.0
2019-Jul-13 07:00N 37°56' E 023°38'0 0.0
2019-Jul-13 06:27N 37°56' E 023°38'0 0.0
2019-Jul-13 06:00N 37°56' E 023°38'0 0.0
2019-Jul-13 05:30N 37°56' E 023°38'0 0.0
2019-Jul-13 05:00N 37°56' E 023°38'0 0.0
2019-Jul-13 04:30N 37°56' E 023°38'0 0.0
2019-Jul-13 04:01N 37°56' E 023°38'1 2.9
2019-Jul-13 03:31N 37°56' E 023°36'1 1.4
2019-Jul-13 03:00N 37°55' E 023°36'2 4.7
2019-Jul-13 02:31N 37°53' E 023°38'3 6.3
2019-Jul-13 02:01N 37°50' E 023°39'4 7.1
2019-Jul-13 01:31N 37°47' E 023°41'4 7.0
2019-Jul-13 01:01N 37°44' E 023°43'4 7.3
2019-Jul-13 00:31N 37°40' E 023°45'4 7.3
2019-Jul-13 00:01N 37°37' E 023°46'4 7.5
2019-Jul-12 23:30N 37°33' E 023°47'37 7.5
2019-Jul-12 18:36N 37°09' E 023°12'4 8.1
2019-Jul-12 18:04N 37°08' E 023°07'1 7.7
2019-Jul-12 17:53N 37°08' E 023°05'4 7.7
2019-Jul-12 17:22N 37°12' E 023°02'3 8.0
2019-Jul-12 17:01N 37°14' E 023°01'17 7.9
2019-Jul-12 14:49N 37°29' E 022°49'0 0.0
2019-Jul-12 03:09N 37°29' E 022°50'14 8.2
2019-Jul-12 01:29N 37°17' E 022°58'9 8.7
2019-Jul-12 00:26N 37°09' E 023°04'4 8.6
2019-Jul-11 23:58N 37°06' E 023°06'  
2019-Jul-07 18:53N 37°46' E 025°47'3 8.4
2019-Jul-07 18:29N 37°45' E 025°43'4 8.3
2019-Jul-07 18:00N 37°42' E 025°39'4 8.2
2019-Jul-07 17:30N 37°40' E 025°35'4 7.8
2019-Jul-07 17:00N 37°38' E 025°31'4 8.1
2019-Jul-07 16:30N 37°35' E 025°27'4 8.3
2019-Jul-07 16:00N 37°33' E 025°23'4 7.7
2019-Jul-07 15:30N 37°31' E 025°18'3 6.4
2019-Jul-07 15:00N 37°28' E 025°17'2 3.3
2019-Jul-07 14:28N 37°27' E 025°19'0 0.0
2019-Jul-07 13:58N 37°27' E 025°19'0 0.0
2019-Jul-07 13:25N 37°27' E 025°19'0 0.0
2019-Jul-07 12:55N 37°27' E 025°19'0 0.0
2019-Jul-07 12:28N 37°27' E 025°19'0 0.0
2019-Jul-07 11:55N 37°27' E 025°19'0 0.0
2019-Jul-07 11:28N 37°27' E 025°19'0 0.0
2019-Jul-07 10:55N 37°27' E 025°19'0 0.0
2019-Jul-07 10:28N 37°27' E 025°19'0 0.0
2019-Jul-07 09:55N 37°27' E 025°19'0 0.0
2019-Jul-07 09:28N 37°27' E 025°19'0 0.1
2019-Jul-07 08:55N 37°27' E 025°19'0 0.0
2019-Jul-07 08:28N 37°27' E 025°19'0 0.0
2019-Jul-07 07:46N 37°27' E 025°19'0 0.0
2019-Jul-07 07:25N 37°27' E 025°19'0 0.0
2019-Jul-07 06:58N 37°27' E 025°19'0 0.1
2019-Jul-07 06:28N 37°27' E 025°19'0 0.1
2019-Jul-07 05:58N 37°27' E 025°19'0 0.0
2019-Jul-07 05:28N 37°27' E 025°19'0 0.0
2019-Jul-07 04:55N 37°27' E 025°19'0 0.0
2019-Jul-07 04:30N 37°27' E 025°19'1 1.7
2019-Jul-07 04:00N 37°27' E 025°18'3 5.2
2019-Jul-07 03:30N 37°28' E 025°15'3 6.5
2019-Jul-07 03:00N 37°29' E 025°11'6 6.3
2019-Jul-07 02:00N 37°30' E 025°03'3 6.6
2019-Jul-07 01:30N 37°31' E 024°59'3 6.3
2019-Jul-07 01:00N 37°31' E 024°55'3 6.5
2019-Jul-07 00:30N 37°32' E 024°51'3 6.8
2019-Jul-07 00:01N 37°31' E 024°47'40 6.8
2019-Jul-06 18:06N 37°35' E 023°57'1 8.6
2019-Jul-06 18:00N 37°35' E 023°56'4 8.4
2019-Jul-06 17:30N 37°37' E 023°51'4 8.1
2019-Jul-06 17:01N 37°38' E 023°46'4 7.6
2019-Jul-06 16:31N 37°41' E 023°42'4 8.0
2019-Jul-06 16:01N 37°44' E 023°40'4 8.3
2019-Jul-06 15:30N 37°48' E 023°38'4 8.1
2019-Jul-06 15:00N 37°52' E 023°36'4 7.4
2019-Jul-06 14:31N 37°56' E 023°36'2 2.9
2019-Jul-06 13:58N 37°56' E 023°38'0 0.0
2019-Jul-06 13:28N 37°56' E 023°38'0 0.0
2019-Jul-06 12:58N 37°56' E 023°38'0 0.0
2019-Jul-06 12:28N 37°56' E 023°38'0 0.0
2019-Jul-06 11:58N 37°56' E 023°38'0 0.0
2019-Jul-06 11:28N 37°56' E 023°38'0 0.0
2019-Jul-06 10:58N 37°56' E 023°38'0 0.0
2019-Jul-06 10:28N 37°56' E 023°38'0 0.0
2019-Jul-06 09:58N 37°56' E 023°38'0 0.0
2019-Jul-06 09:25N 37°56' E 023°38'0 0.0
2019-Jul-06 08:58N 37°56' E 023°38'0 0.0
2019-Jul-06 08:28N 37°56' E 023°38'0 0.0
2019-Jul-06 07:58N 37°56' E 023°38'0 0.0
2019-Jul-06 07:28N 37°56' E 023°38'0 0.0
2019-Jul-06 06:58N 37°56' E 023°38'0 0.0
2019-Jul-06 06:28N 37°56' E 023°38'0 0.0
2019-Jul-06 05:58N 37°56' E 023°38'0 0.0
2019-Jul-06 05:28N 37°56' E 023°38'0 0.0
2019-Jul-06 04:55N 37°56' E 023°38'0 0.0
2019-Jul-06 04:25N 37°56' E 023°38'0 0.0
2019-Jul-06 04:00N 37°56' E 023°38'1 1.6
2019-Jul-06 03:30N 37°56' E 023°37'1 2.8
2019-Jul-06 03:00N 37°55' E 023°36'5 4.8
2019-Jul-06 02:00N 37°51' E 023°39'3 5.8
2019-Jul-06 01:30N 37°48' E 023°41'3 6.0
2019-Jul-06 01:00N 37°45' E 023°42'3 6.7
2019-Jul-06 00:30N 37°42' E 023°44'3 6.4
2019-Jul-06 00:00N 37°39' E 023°46'3 6.7
2019-Jul-05 23:30N 37°36' E 023°46'3 6.7
2019-Jul-05 23:00N 37°33' E 023°46'3 6.7
2019-Jul-05 22:30N 37°29' E 023°46'3 6.8
2019-Jul-05 22:00N 37°26' E 023°45'4 7.2
2019-Jul-05 21:30N 37°23' E 023°43'3 6.9
2019-Jul-05 21:00N 37°20' E 023°41'13 7.7
2019-Jul-05 19:19N 37°09' E 023°31'12 8.6
2019-Jul-05 17:54N 36°60' E 023°22'  

Dump ship's entire track history